LGIR/HER METAR and TAF weather

Enter ICAO airport designator
Station Type Date Time Source
LGIR METAR 2021/05/14 23:20 UTC NOAA

LGIR 142320Z 17007KT CAVOK 15/10 Q1014 NOSIG


Station Type Date Time Source
LGIR Decoded METAR 2021/05/14 23:20 UTC NOAA

Heraklion Airport , Greece (LGIR) 35-20N 025-11E 39M
May 14, 2021 - 07:20 PM EDT / 2021.05.14 2320 UTC
Wind: from the S (170 degrees) at 8 MPH (7 KT):0
Visibility: greater than 7 mile(s):0
Temperature: 59 F (15 C)
Dew Point: 50 F (10 C)
Relative Humidity: 72%
Pressure (altimeter): 29.94 in. Hg (1014 hPa)
ob: LGIR 142320Z 17007KT CAVOK 15/10 Q1014 NOSIG
cycle: 23

Station Type Date Time Source
LGIR TAF 2021/05/14 18:14 UTC NOAA

TAF LGIR 141700Z 1418/1518 VRB05KT 9999 FEW025
BECMG 1420/1422 18010KT

Example: see airport list